Time;durP1;ratioP1;P1;durP2;ratioP2;P2;SDS_P1;SDS_P2;PMS_P1;PMS_P2;Temp;Humidity;BMP_temperature;BMP_pressure;BME280_temperature;BME280_humidity;BME280_pressure;Samples;Min_cycle;Max_cycle;Signal;HPM_P1;HPM_P2
2022/12/14 00:01:24;;;;;;;20.87;16.70;;;;;;;-1.89;68.82;100377.16;5073589;28;20107;-68
2022/12/14 00:03:50;;;;;;;19.20;16.47;;;;;;;-1.94;68.47;100366.84;5091272;28;20379;-68
2022/12/14 00:06:22;;;;;;;22.70;17.27;;;;;;;-1.97;68.99;100372.13;5091917;28;20032;-68
2022/12/14 00:08:50;;;;;;;24.40;17.20;;;;;;;-1.95;69.22;100366.88;5073745;28;20028;-68
2022/12/14 00:11:18;;;;;;;19.97;16.10;;;;;;;-1.98;68.39;100352.16;5091706;28;20032;-68
2022/12/14 00:13:45;;;;;;;23.27;16.77;;;;;;;-1.99;68.11;100350.44;5073356;28;20028;-68
2022/12/14 00:16:16;;;;;;;20.83;17.30;;;;;;;-2.00;68.34;100343.53;5091426;28;20111;-68
2022/12/14 00:18:43;;;;;;;23.47;17.07;;;;;;;-2.06;68.25;100341.00;5073539;28;20486;-67
2022/12/14 00:21:13;;;;;;;20.80;16.57;;;;;;;-2.00;68.28;100340.91;5091313;28;20032;-68
2022/12/14 00:23:40;;;;;;;19.83;15.77;;;;;;;-1.95;67.97;100346.03;5073186;28;20042;-68
2022/12/14 00:26:13;;;;;;;19.20;15.37;;;;;;;-1.95;67.63;100346.88;5091761;28;20486;-68
2022/12/14 00:28:41;;;;;;;20.37;16.43;;;;;;;-1.98;67.55;100338.28;5091136;28;20024;-68
2022/12/14 00:31:09;;;;;;;19.77;15.87;;;;;;;-1.96;67.54;100344.31;5091357;28;20331;-68
2022/12/14 00:33:35;;;;;;;22.57;16.77;;;;;;;-1.94;67.38;100342.53;5090767;28;20103;-68
2022/12/14 00:36:02;;;;;;;20.77;15.57;;;;;;;-1.91;67.29;100345.06;5091145;28;20111;-68
2022/12/14 00:38:28;;;;;;;21.57;15.57;;;;;;;-1.92;66.88;100338.16;5091455;28;20024;-67
2022/12/14 00:40:54;;;;;;;20.23;17.20;;;;;;;-1.88;67.45;100339.81;5073267;28;20081;-68
2022/12/14 00:43:20;;;;;;;20.67;15.43;;;;;;;-1.98;67.13;100331.31;5090762;28;20024;-68
2022/12/14 00:45:46;;;;;;;17.93;15.90;;;;;;;-1.97;66.88;100312.19;5092558;28;20028;-68
2022/12/14 00:48:13;;;;;;;22.80;16.63;;;;;;;-1.96;66.74;100320.88;5088952;28;20060;-68
2022/12/14 00:50:39;;;;;;;18.80;16.37;;;;;;;-2.00;66.45;100317.47;5093386;28;20076;-67
2022/12/14 00:53:05;;;;;;;18.50;16.00;;;;;;;-2.01;67.06;100318.34;5089703;28;20107;-68
2022/12/14 00:55:37;;;;;;;19.27;16.97;;;;;;;-1.97;67.10;100308.72;5090977;28;20028;-68
2022/12/14 00:58:02;;;;;;;18.23;15.50;;;;;;;-1.97;66.68;100313.91;5070763;28;20104;-68
2022/12/14 01:00:28;;;;;;;20.63;16.07;;;;;;;-2.01;67.14;100318.34;5045901;28;20464;-68
2022/12/14 01:02:53;;;;;;;19.43;16.10;;;;;;;-2.06;66.88;100309.75;5055706;28;20041;-68
2022/12/14 01:05:21;;;;;;;19.40;16.07;;;;;;;-2.08;66.90;100307.19;5073123;28;20382;-68
2022/12/14 01:07:47;;;;;;;20.33;16.40;;;;;;;-2.03;66.95;100304.47;5072943;28;20047;-68
2022/12/14 01:10:12;;;;;;;21.57;15.53;;;;;;;-2.06;66.93;100299.31;5077324;28;20458;-68
2022/12/14 01:12:38;;;;;;;20.60;16.30;;;;;;;-2.09;66.62;100296.78;5026171;28;20088;-67
2022/12/14 01:15:04;;;;;;;18.40;15.60;;;;;;;-2.18;66.54;100296.97;5072946;28;20448;-68
2022/12/14 01:17:30;;;;;;;20.23;16.03;;;;;;;-2.25;67.00;100283.22;5075573;28;20035;-67
2022/12/14 01:19:56;;;;;;;21.77;15.47;;;;;;;-2.25;67.65;100285.81;5076594;28;20027;-68
2022/12/14 01:22:22;;;;;;;19.57;15.17;;;;;;;-2.17;66.91;100289.16;5076304;28;20040;-68
2022/12/14 01:24:47;;;;;;;19.80;15.17;;;;;;;-2.20;67.06;100289.22;5094300;28;20114;-68
2022/12/14 01:27:13;;;;;;;19.27;15.83;;;;;;;-2.26;67.16;100284.13;5075903;28;20090;-68
2022/12/14 01:29:39;;;;;;;19.03;15.93;;;;;;;-2.22;67.59;100287.53;5075504;28;20032;-68
2022/12/14 01:32:05;;;;;;;21.13;16.73;;;;;;;-2.29;67.04;100281.59;5074052;28;20039;-68
2022/12/14 01:34:31;;;;;;;18.40;14.83;;;;;;;-2.36;67.25;100279.97;5059415;28;20028;-68
2022/12/14 01:36:57;;;;;;;17.27;15.17;;;;;;;-2.40;67.51;100276.56;5078135;28;20047;-68
2022/12/14 01:39:23;;;;;;;19.00;15.30;;;;;;;-2.40;67.41;100284.38;5063809;28;20086;-67
2022/12/14 01:41:51;;;;;;;19.73;15.60;;;;;;;-2.38;67.44;100276.53;5068325;28;20046;-68
2022/12/14 01:44:16;;;;;;;21.27;15.33;;;;;;;-2.35;67.80;100274.75;5075609;28;20471;-68
2022/12/14 01:47:05;;;;;;;18.87;15.07;;;;;;;-2.28;67.48;100291.94;5075959;28;20035;-68
2022/12/14 01:49:40;;;;;;;20.17;15.50;;;;;;;-2.34;68.06;100283.41;5074046;28;20020;-68
2022/12/14 01:52:18;;;;;;;21.23;15.60;;;;;;;-2.34;68.20;100291.22;5062154;28;20044;-68
2022/12/14 01:55:08;;;;;;;19.40;15.97;;;;;;;-2.31;67.24;100283.34;5094192;28;20020;-68
2022/12/14 01:57:40;;;;;;;18.67;15.43;;;;;;;-2.32;67.60;100282.50;5093511;28;20475;-68
2022/12/14 02:00:08;;;;;;;18.67;14.93;;;;;;;-2.35;67.73;100279.94;5093508;28;20103;-68
2022/12/14 02:02:39;;;;;;;20.93;15.90;;;;;;;-2.34;67.28;100270.38;5093819;28;20500;-68
2022/12/14 02:05:06;;;;;;;17.70;14.93;;;;;;;-2.37;67.30;100263.50;5093752;28;20024;-68
2022/12/14 02:07:33;;;;;;;18.63;15.53;;;;;;;-2.36;67.24;100266.94;5075286;28;20029;-68
2022/12/14 02:10:02;;;;;;;19.47;15.23;;;;;;;-2.39;67.84;100261.81;5093734;28;20016;-68
2022/12/14 02:12:33;;;;;;;20.67;16.07;;;;;;;-2.40;66.91;100263.56;5092975;28;20058;-68
2022/12/14 02:15:00;;;;;;;20.80;15.83;;;;;;;-2.44;67.29;100253.22;5093530;28;20020;-67
2022/12/14 02:17:27;;;;;;;21.37;15.63;;;;;;;-2.43;67.31;100254.94;5093220;28;20479;-68
2022/12/14 02:19:54;;;;;;;19.57;16.00;;;;;;;-2.39;67.53;100247.03;5074809;28;20506;-68
2022/12/14 02:22:49;;;;;;;20.00;15.20;;;;;;;-2.39;67.16;100252.25;5075283;28;20020;-68
2022/12/14 02:25:40;;;;;;;19.30;14.77;;;;;;;-2.35;67.59;100253.91;5051989;28;20043;-67
2022/12/14 02:28:43;;;;;;;18.37;14.90;;;;;;;-2.36;67.31;100257.38;5072821;28;20398;-68
2022/12/14 02:31:22;;;;;;;17.20;14.00;;;;;;;-2.41;67.24;100255.75;5075285;28;20065;-68
2022/12/14 02:34:06;;;;;;;19.83;14.93;;;;;;;-2.41;67.29;100250.53;5092760;28;20038;-68
2022/12/14 02:36:42;;;;;;;18.73;15.27;;;;;;;-2.50;67.38;100235.97;5093241;28;20197;-68
2022/12/14 02:39:31;;;;;;;20.67;15.13;;;;;;;-2.39;67.72;100244.44;5093193;28;20038;-68
2022/12/14 02:42:04;;;;;;;18.50;15.20;;;;;;;-2.40;67.30;100242.72;5092556;28;20035;-68
2022/12/14 02:44:35;;;;;;;18.30;14.87;;;;;;;-2.39;67.30;100251.38;5092697;28;20098;-67
2022/12/14 02:47:25;;;;;;;17.67;15.10;;;;;;;-2.36;67.05;100246.13;5092642;28;20024;-68
2022/12/14 02:49:59;;;;;;;18.05;14.68;;;;;;;-2.33;67.15;100243.44;5082829;28;20110;-68
2022/12/14 02:52:34;;;;;;;21.10;15.70;;;;;;;-2.33;66.99;100240.84;5092748;28;20130;-68
2022/12/14 02:55:09;;;;;;;16.27;14.23;;;;;;;-2.31;67.23;100247.75;5092923;28;20052;-68
2022/12/14 02:57:45;;;;;;;19.17;14.80;;;;;;;-2.35;67.09;100240.03;5073914;28;20032;-68
2022/12/14 03:00:12;;;;;;;17.13;14.87;;;;;;;-2.38;67.42;100240.06;5072564;28;20031;-68
2022/12/14 03:02:39;;;;;;;18.37;14.17;;;;;;;-2.48;67.09;100230.75;5038046;28;20548;-67
2022/12/14 03:05:05;;;;;;;17.30;14.63;;;;;;;-2.34;67.29;100249.56;5069641;28;20015;-68
2022/12/14 03:07:38;;;;;;;17.50;14.03;;;;;;;-2.33;67.25;100246.06;5074379;28;20526;-68
2022/12/14 03:10:13;;;;;;;20.60;15.20;;;;;;;-2.35;67.20;100240.91;5074015;28;20028;-67
2022/12/14 03:12:41;;;;;;;18.13;15.13;;;;;;;-2.28;67.06;100244.22;5071812;28;20056;-68
2022/12/14 03:15:13;;;;;;;17.53;13.93;;;;;;;-2.26;66.58;100242.47;5072042;28;20040;-68
2022/12/14 03:17:40;;;;;;;17.13;14.43;;;;;;;-2.35;66.91;100227.88;5072163;28;20051;-68
2022/12/14 03:20:14;;;;;;;16.90;14.27;;;;;;;-2.19;66.56;100236.22;5072166;28;20472;-68
2022/12/14 03:22:53;;;;;;;17.50;14.27;;;;;;;-2.21;67.27;100232.78;5089244;28;20539;-67
2022/12/14 03:26:13;;;;;;;16.33;13.87;;;;;;;-2.15;67.00;100230.03;5088161;28;20382;-67
2022/12/14 03:28:49;;;;;;;18.53;15.13;;;;;;;-2.27;66.77;100219.88;5009029;28;20468;-68
2022/12/14 03:31:23;;;;;;;19.13;14.57;;;;;;;-2.29;66.27;100195.66;5089177;28;20052;-67
2022/12/14 03:33:53;;;;;;;17.37;14.40;;;;;;;-2.21;66.92;100200.66;5075849;28;20062;-68
2022/12/14 03:36:27;;;;;;;15.20;13.13;;;;;;;-2.25;66.96;100192.06;5090221;28;20066;-68
2022/12/14 03:38:57;;;;;;;17.90;14.03;;;;;;;-2.23;66.80;100185.09;5093332;28;20466;-68
2022/12/14 03:41:44;;;;;;;18.13;14.07;;;;;;;-2.15;66.70;100192.72;5073136;28;20035;-68
2022/12/14 03:44:23;;;;;;;17.47;13.80;;;;;;;-2.23;66.84;100195.50;5084261;28;20044;-68
2022/12/14 03:46:48;;;;;;;18.17;15.47;;;;;;;-2.29;67.07;100190.44;5091097;28;20475;-68
2022/12/14 03:49:52;;;;;;;17.87;14.33;;;;;;;-2.20;67.70;100198.06;5091108;28;20024;-68
2022/12/14 03:52:39;;;;;;;16.87;14.67;;;;;;;-2.22;67.10;100196.38;5074489;28;20051;-68
2022/12/14 03:55:30;;;;;;;18.57;14.53;;;;;;;-2.18;66.75;100193.66;5071508;28;20021;-68
2022/12/14 03:58:17;;;;;;;18.97;13.73;;;;;;;-2.16;67.51;100191.88;5082128;28;20028;-67
2022/12/14 04:00:53;;;;;;;16.53;13.50;;;;;;;-2.19;67.18;100178.91;5090293;28;20439;-68
2022/12/14 04:03:40;;;;;;;19.43;14.43;;;;;;;-2.19;67.23;100176.31;5091270;28;20107;-68
2022/12/14 04:06:21;;;;;;;19.13;15.23;;;;;;;-2.19;67.10;100176.31;5090922;28;20028;-68
2022/12/14 04:08:49;;;;;;;19.90;16.70;;;;;;;-2.15;67.53;100164.91;5090725;28;20032;-68
2022/12/14 04:20:05;;;;;;;21.25;15.07;;;;;;;-2.17;67.73;100150.25;5091187;28;20109;-68
2022/12/14 04:22:36;;;;;;;20.30;15.60;;;;;;;-2.16;67.63;100151.94;5090789;28;20040;-68
2022/12/14 04:31:12;;;;;;;18.00;14.27;;;;;;;-2.31;67.61;100154.00;5090658;28;20035;-68
2022/12/14 04:33:46;;;;;;;20.05;15.43;;;;;;;-2.33;67.59;100147.94;5084607;28;20024;-68
2022/12/14 04:36:25;;;;;;;19.67;15.43;;;;;;;-2.34;68.02;100150.59;5090947;28;20043;-68
2022/12/14 04:39:00;;;;;;;17.87;13.70;;;;;;;-2.30;67.99;100136.63;5090725;28;20028;-68
2022/12/14 04:41:31;;;;;;;18.80;14.80;;;;;;;-2.27;67.81;100136.56;5076116;28;20482;-68
2022/12/14 04:44:02;;;;;;;19.53;14.97;;;;;;;-2.34;67.65;100133.22;5072723;28;20039;-68
2022/12/14 04:46:31;;;;;;;20.00;14.47;;;;;;;-2.33;67.82;100134.09;5090861;28;20036;-68
2022/12/14 04:49:10;;;;;;;16.52;13.35;;;;;;;-2.25;67.73;100133.94;5094242;28;20114;-68
2022/12/14 04:51:48;;;;;;;19.70;13.47;;;;;;;-2.33;67.46;100123.66;5099400;28;20048;-68
2022/12/14 04:54:31;;;;;;;19.77;14.60;;;;;;;-2.32;67.89;100120.19;5095285;28;20027;-68
2022/12/14 04:57:22;;;;;;;19.53;14.90;;;;;;;-2.17;67.98;100122.44;5095079;28;20027;-68
2022/12/14 04:59:49;;;;;;;16.90;14.37;;;;;;;-2.17;67.13;100116.38;5095099;28;20024;-68
2022/12/14 05:02:32;;;;;;;20.63;14.37;;;;;;;-2.16;67.54;100124.16;5094779;28;20111;-67
2022/12/14 05:05:10;;;;;;;17.00;14.40;;;;;;;-2.19;67.88;100125.97;5094848;28;20037;-67
2022/12/14 05:07:52;;;;;;;17.93;14.70;;;;;;;-2.19;67.66;100132.03;5078501;28;20020;-67
2022/12/14 05:10:28;;;;;;;18.40;14.10;;;;;;;-2.20;67.34;100127.72;5094901;28;20020;-68
2022/12/14 05:13:02;;;;;;;17.77;13.73;;;;;;;-2.19;67.35;100120.75;5094212;28;20406;-68
2022/12/14 05:15:49;;;;;;;16.83;13.50;;;;;;;-2.15;68.04;100117.19;5094469;28;20081;-68
2022/12/14 05:18:15;;;;;;;19.00;14.77;;;;;;;-2.19;67.60;100116.41;5094781;28;20028;-67
2022/12/14 05:20:44;;;;;;;18.47;15.97;;;;;;;-2.20;68.14;100109.50;5097334;28;20162;-68
2022/12/14 05:23:09;;;;;;;18.13;13.80;;;;;;;-2.20;67.84;100103.44;5082370;28;20147;-67
2022/12/14 05:25:35;;;;;;;18.30;15.33;;;;;;;-2.29;67.92;100113.16;5094232;28;20554;-68
2022/12/14 05:28:01;;;;;;;18.43;14.57;;;;;;;-2.21;68.07;100101.69;5076059;28;20391;-68
2022/12/14 05:30:26;;;;;;;18.40;14.13;;;;;;;-2.26;67.50;100106.16;5076581;28;20109;-67
2022/12/14 05:32:52;;;;;;;18.73;16.83;;;;;;;-2.28;68.07;100101.00;5076007;28;20028;-67
2022/12/14 05:35:18;;;;;;;19.07;14.17;;;;;;;-2.19;67.69;100103.38;5093666;28;20109;-68
2022/12/14 05:37:43;;;;;;;18.30;15.37;;;;;;;-2.28;67.52;100099.25;5076248;28;20032;-67
2022/12/14 05:40:10;;;;;;;19.00;14.70;;;;;;;-2.28;67.90;100098.38;5094192;28;20028;-67
2022/12/14 05:42:35;;;;;;;17.40;14.43;;;;;;;-2.28;67.38;100096.63;5093883;28;20034;-68
2022/12/14 05:45:00;;;;;;;16.20;14.43;;;;;;;-2.23;67.45;100098.31;5093719;28;20371;-68
2022/12/14 05:47:26;;;;;;;16.60;14.83;;;;;;;-2.21;67.64;100104.31;5093491;28;20064;-68
2022/12/14 05:49:52;;;;;;;17.90;15.10;;;;;;;-2.23;67.93;100101.75;5097141;28;20107;-68
2022/12/14 05:52:18;;;;;;;18.30;13.30;;;;;;;-2.17;68.03;100101.59;5090452;28;20050;-68
2022/12/14 05:54:44;;;;;;;18.67;14.80;;;;;;;-2.23;68.29;100106.13;5093194;28;20016;-67
2022/12/14 05:57:09;;;;;;;20.30;15.97;;;;;;;-2.34;68.99;100093.31;5075242;28;20397;-67
2022/12/14 05:59:35;;;;;;;21.33;14.90;;;;;;;-2.17;68.76;100105.97;5097529;28;20047;-68
2022/12/14 06:02:01;;;;;;;23.90;17.57;;;;;;;-2.17;69.12;100100.75;5093458;28;20486;-67
2022/12/14 06:04:26;;;;;;;24.73;16.47;;;;;;;-2.20;69.44;100100.84;5093714;28;20232;-68
2022/12/14 06:06:52;;;;;;;25.93;18.13;;;;;;;-2.25;69.58;100095.72;5093526;28;20467;-67
2022/12/14 06:09:18;;;;;;;23.47;16.03;;;;;;;-2.25;69.23;100094.88;5074767;28;20481;-67
2022/12/14 06:11:44;;;;;;;19.47;17.30;;;;;;;-2.31;69.66;100094.09;5093793;28;20428;-67
2022/12/14 06:14:11;;;;;;;20.40;15.27;;;;;;;-2.24;69.27;100089.59;5093639;28;20031;-68
2022/12/14 06:16:40;;;;;;;20.20;17.67;;;;;;;-2.30;69.29;100084.53;5089360;28;20731;-68
2022/12/14 06:19:08;;;;;;;21.03;14.70;;;;;;;-2.36;69.52;100064.69;5073495;28;20020;-68
2022/12/14 06:21:36;;;;;;;20.43;15.50;;;;;;;-2.33;69.33;100085.47;5093430;28;20020;-68
2022/12/14 06:24:05;;;;;;;23.33;15.32;;;;;;;-2.38;69.74;100071.72;5078493;28;20028;-67
2022/12/14 06:26:32;;;;;;;18.43;16.07;;;;;;;-2.38;70.48;100092.53;5086699;28;20393;-67
2022/12/14 06:28:58;;;;;;;18.60;15.20;;;;;;;-2.32;69.82;100086.34;5078881;28;20470;-68
2022/12/14 06:31:26;;;;;;;20.87;16.17;;;;;;;-2.39;70.00;100083.00;5093397;28;20028;-68
2022/12/14 06:33:53;;;;;;;18.27;14.97;;;;;;;-2.32;69.90;100081.97;5074873;28;20024;-68
2022/12/14 06:36:22;;;;;;;18.27;16.30;;;;;;;-2.30;70.14;100082.78;5074902;28;20055;-67
2022/12/14 06:38:49;;;;;;;20.60;15.53;;;;;;;-2.29;70.44;100086.28;5092908;28;20532;-67
2022/12/14 06:41:14;;;;;;;19.50;15.37;;;;;;;-2.27;71.01;100079.25;5093546;28;20308;-67
2022/12/14 06:43:40;;;;;;;21.03;16.90;;;;;;;-2.36;70.84;100084.69;5075013;28;20483;-67
2022/12/14 06:46:08;;;;;;;16.93;14.67;;;;;;;-2.34;70.52;100085.50;5100800;28;20100;-68
2022/12/14 06:48:35;;;;;;;18.70;16.00;;;;;;;-2.39;70.71;100096.00;5087880;28;20035;-67
2022/12/14 06:51:05;;;;;;;18.70;15.23;;;;;;;-2.35;70.81;100099.44;5094707;28;20066;-67
2022/12/14 06:53:31;;;;;;;19.95;16.08;;;;;;;-2.31;70.76;100106.28;5092756;28;20031;-68
2022/12/14 06:56:06;;;;;;;24.00;16.97;;;;;;;-2.36;71.09;100098.56;5092957;28;20070;-67
2022/12/14 06:58:31;;;;;;;19.90;15.90;;;;;;;-2.41;71.31;100095.22;5094266;28;20037;-67
2022/12/14 07:01:01;;;;;;;20.10;18.00;;;;;;;-2.43;71.71;100094.38;5093692;28;20639;-68
2022/12/14 07:03:26;;;;;;;20.73;15.57;;;;;;;-2.35;71.39;100100.28;5068651;28;20089;-68
2022/12/14 07:05:59;;;;;;;17.47;15.23;;;;;;;-2.31;71.18;100096.72;5037272;28;20481;-68
2022/12/14 07:08:26;;;;;;;18.23;15.17;;;;;;;-2.29;71.21;100104.50;5084908;28;20031;-68
2022/12/14 07:10:52;;;;;;;22.40;15.87;;;;;;;-2.39;72.06;100103.81;5074132;28;20529;-68
2022/12/14 07:13:17;;;;;;;21.27;16.67;;;;;;;-2.35;71.97;100102.88;5090826;28;20028;-67
2022/12/14 07:15:43;;;;;;;19.10;15.73;;;;;;;-2.37;71.94;100099.44;5073150;28;20025;-67
2022/12/14 07:18:09;;;;;;;18.63;16.00;;;;;;;-2.42;72.36;100106.50;5088125;28;20031;-68
2022/12/14 07:20:35;;;;;;;21.87;16.73;;;;;;;-2.35;72.30;100102.88;5090898;28;20069;-67
2022/12/14 07:23:00;;;;;;;21.23;17.63;;;;;;;-2.37;72.18;100101.19;5092073;28;20107;-67
2022/12/14 07:25:26;;;;;;;24.87;17.90;;;;;;;-2.41;72.02;100104.75;5071752;28;20035;-67
2022/12/14 07:27:52;;;;;;;23.87;16.90;;;;;;;-2.44;72.53;100108.31;5055543;28;20035;-68
2022/12/14 07:30:17;;;;;;;25.53;18.33;;;;;;;-2.39;72.48;100106.44;5091042;28;20024;-67
2022/12/14 07:32:45;;;;;;;23.50;19.23;;;;;;;-2.42;71.80;100116.06;5073928;28;20576;-67
2022/12/14 07:35:13;;;;;;;23.03;18.93;;;;;;;-2.43;72.32;100122.16;5068819;28;20484;-67
2022/12/14 07:37:41;;;;;;;22.97;19.47;;;;;;;-2.47;72.29;100112.69;5043768;28;20055;-67
2022/12/14 07:40:07;;;;;;;23.10;18.63;;;;;;;-2.48;72.14;100117.03;5074587;28;20027;-67
2022/12/14 07:42:33;;;;;;;23.77;17.20;;;;;;;-2.49;72.50;100112.75;5073665;28;20375;-67
2022/12/14 07:45:00;;;;;;;21.53;17.60;;;;;;;-2.50;72.01;100111.00;5040556;28;20035;-67
2022/12/14 07:47:29;;;;;;;22.10;17.20;;;;;;;-2.49;72.41;100112.75;5073469;28;20024;-69
2022/12/14 07:49:55;;;;;;;22.37;17.50;;;;;;;-2.55;72.06;100115.47;5091945;28;20020;-67
2022/12/14 07:52:22;;;;;;;21.87;17.67;;;;;;;-2.55;72.42;100112.88;5056735;28;20056;-67
2022/12/14 07:54:49;;;;;;;23.73;17.90;;;;;;;-2.62;72.64;100111.28;5074176;28;20032;-67
2022/12/14 07:57:14;;;;;;;28.50;18.70;;;;;;;-2.71;72.58;100108.88;5091491;28;20024;-67
2022/12/14 07:59:40;;;;;;;30.20;20.13;;;;;;;-2.64;72.58;100108.72;5040182;28;20028;-67
2022/12/14 08:02:09;;;;;;;26.70;18.20;;;;;;;-2.69;72.89;100120.13;5073453;28;20573;-67
2022/12/14 08:04:35;;;;;;;28.33;19.53;;;;;;;-2.69;73.19;100122.72;5091652;28;20024;-67
2022/12/14 08:07:01;;;;;;;27.33;19.30;;;;;;;-2.73;72.74;100119.31;5073595;28;20024;-67
2022/12/14 08:09:26;;;;;;;31.17;19.97;;;;;;;-2.80;73.56;100117.72;5091276;28;20056;-67
2022/12/14 08:11:52;;;;;;;24.27;18.47;;;;;;;-2.77;73.75;100128.06;5073495;28;20368;-67
2022/12/14 08:14:18;;;;;;;22.43;17.20;;;;;;;-2.76;73.65;100127.19;5072929;28;20060;-67
2022/12/14 08:16:47;;;;;;;23.83;17.70;;;;;;;-2.76;73.68;100133.25;5073591;28;20118;-67
2022/12/14 08:19:13;;;;;;;26.37;18.53;;;;;;;-2.78;73.89;100126.34;5091197;28;20055;-67
2022/12/14 08:21:40;;;;;;;24.20;18.27;;;;;;;-2.84;73.70;100123.88;5091491;28;20547;-67
2022/12/14 08:24:06;;;;;;;26.87;17.73;;;;;;;-2.80;74.20;100141.13;5073554;28;20020;-67
2022/12/14 08:26:33;;;;;;;24.43;17.60;;;;;;;-2.70;73.62;100131.44;5077414;28;20445;-67
2022/12/14 08:29:02;;;;;;;23.50;16.93;;;;;;;-2.80;74.17;100131.59;5094695;28;20066;-67
2022/12/14 08:31:27;;;;;;;24.67;17.37;;;;;;;-2.67;74.07;100141.78;5076691;28;20070;-66
2022/12/14 08:33:53;;;;;;;23.63;17.40;;;;;;;-2.76;73.75;100138.47;5077408;28;20024;-67
2022/12/14 08:36:25;;;;;;;25.93;17.50;;;;;;;-2.67;73.92;100132.22;5095160;28;20715;-67
2022/12/14 08:39:02;;;;;;;25.60;18.27;;;;;;;-2.72;73.90;100139.25;5077025;28;20020;-68
2022/12/14 08:41:30;;;;;;;23.73;18.00;;;;;;;-2.70;73.96;100139.22;5095042;28;20024;-67
2022/12/14 08:43:58;;;;;;;25.33;18.00;;;;;;;-2.72;73.93;100143.59;5094495;28;20065;-67
2022/12/14 08:46:25;;;;;;;24.10;17.80;;;;;;;-2.73;73.26;100142.75;5095023;28;20039;-68
2022/12/14 08:48:52;;;;;;;25.43;18.07;;;;;;;-2.76;72.99;100148.00;5095026;28;20030;-65
2022/12/14 08:51:18;;;;;;;24.53;17.83;;;;;;;-2.69;73.04;100144.38;5076913;28;20052;-65
2022/12/14 08:53:46;;;;;;;25.20;17.20;;;;;;;-2.70;73.21;100144.44;5095050;28;20024;-65
2022/12/14 08:56:17;;;;;;;23.27;17.67;;;;;;;-2.80;73.21;100142.00;5094018;28;20047;-65
2022/12/14 08:58:43;;;;;;;22.10;16.90;;;;;;;-2.79;73.11;100142.88;5094222;28;20068;-65
2022/12/14 09:01:14;;;;;;;20.93;17.33;;;;;;;-2.82;73.40;100135.13;5076839;28;20073;-65
2022/12/14 09:03:44;;;;;;;25.03;18.07;;;;;;;-2.80;73.61;100139.38;5076635;28;20028;-65
2022/12/14 09:06:13;;;;;;;27.55;18.02;;;;;;;-2.78;73.28;100142.81;5094767;28;20120;-65
2022/12/14 09:08:39;;;;;;;24.90;17.73;;;;;;;-2.77;73.18;100149.72;5094949;28;20222;-65
2022/12/14 09:11:05;;;;;;;23.23;18.60;;;;;;;-2.79;72.75;100146.31;5077015;28;20472;-65
2022/12/14 09:13:32;;;;;;;22.53;17.73;;;;;;;-2.71;73.05;100151.34;5094091;28;20425;-65
2022/12/14 09:16:09;;;;;;;22.47;17.00;;;;;;;-2.72;73.11;100146.19;5076845;28;20016;-65
2022/12/14 09:18:37;;;;;;;24.87;17.47;;;;;;;-2.65;72.84;100153.84;5094149;28;20023;-65
2022/12/14 09:21:04;;;;;;;22.63;17.43;;;;;;;-2.65;73.06;100155.59;5076063;28;20110;-65
2022/12/14 09:23:31;;;;;;;24.13;18.43;;;;;;;-2.55;72.58;100150.16;5094230;28;20085;-65
2022/12/14 09:25:58;;;;;;;24.83;18.70;;;;;;;-2.58;72.61;100155.44;5076498;28;20016;-65
2022/12/14 09:28:26;;;;;;;22.93;18.37;;;;;;;-2.60;72.53;100151.16;5093337;28;20493;-66
2022/12/14 09:30:57;;;;;;;27.00;19.60;;;;;;;-2.64;72.96;100160.78;5076185;28;20085;-65
2022/12/14 09:33:24;;;;;;;23.60;18.33;;;;;;;-2.64;72.64;100159.91;5094025;28;20102;-65
2022/12/14 09:35:52;;;;;;;26.93;18.40;;;;;;;-2.71;72.66;100164.38;5093712;28;20031;-65
2022/12/14 09:38:19;;;;;;;21.83;18.10;;;;;;;-2.59;73.00;100168.47;5094202;28;20119;-65
2022/12/14 09:40:54;;;;;;;25.97;18.10;;;;;;;-2.65;73.13;100161.63;5075953;28;20419;-65
2022/12/14 09:43:45;;;;;;;25.27;17.13;;;;;;;-2.51;72.70;100172.63;5074506;28;20035;-65
2022/12/14 09:46:36;;;;;;;27.53;17.60;;;;;;;-2.37;72.33;100163.69;5093851;28;20054;-65
2022/12/14 09:49:02;;;;;;;24.10;17.85;;;;;;;-2.25;71.70;100159.97;5075212;28;20020;-65
2022/12/14 09:51:37;;;;;;;23.77;17.53;;;;;;;-2.17;70.93;100158.06;5074643;28;20052;-65
2022/12/14 09:54:11;;;;;;;22.07;16.80;;;;;;;-1.98;70.67;100150.69;5093196;28;20070;-65
2022/12/14 09:56:39;;;;;;;25.50;16.80;;;;;;;-1.86;70.07;100153.00;5068966;28;20024;-65
2022/12/14 09:59:05;;;;;;;22.13;16.47;;;;;;;-1.79;70.08;100151.09;5073216;28;20390;-65
2022/12/14 10:01:39;;;;;;;23.80;17.67;;;;;;;-1.60;69.44;100162.81;5039255;28;20119;-65
2022/12/14 10:04:27;;;;;;;24.90;16.20;;;;;;;-1.38;69.17;100164.00;5073516;28;20724;-65
2022/12/14 10:06:59;;;;;;;18.83;15.33;;;;;;;-1.23;68.29;100167.09;5089263;28;20129;-65
2022/12/14 10:09:27;;;;;;;22.07;16.47;;;;;;;-1.21;67.77;100163.53;5075189;28;20582;-65
2022/12/14 10:12:20;;;;;;;21.33;16.73;;;;;;;-1.23;67.78;100162.75;5093404;28;20085;-65
2022/12/14 10:15:23;;;;;;;19.63;15.43;;;;;;;-1.19;67.82;100159.16;5075632;28;20024;-65
2022/12/14 10:17:57;;;;;;;19.93;15.20;;;;;;;-1.13;67.27;100152.91;5089594;28;20032;-65
2022/12/14 10:20:52;;;;;;;19.83;17.80;;;;;;;-1.08;67.97;100145.84;5092972;28;20123;-65
2022/12/14 10:23:21;;;;;;;20.43;15.57;;;;;;;-0.69;64.86;100143.88;5093220;28;20035;-65
2022/12/14 10:25:50;;;;;;;21.07;16.53;;;;;;;-0.33;64.05;100142.84;5074729;28;20137;-65
2022/12/14 10:28:28;;;;;;;20.93;16.87;;;;;;;0.06;63.60;100142.53;5092931;28;20028;-65
2022/12/14 10:30:58;;;;;;;20.17;17.27;;;;;;;0.48;62.97;100158.63;5058188;28;20030;-65
2022/12/14 10:33:32;;;;;;;19.60;15.67;;;;;;;0.98;60.84;100155.19;5093685;28;20024;-65
2022/12/14 10:36:08;;;;;;;21.10;14.50;;;;;;;1.45;59.48;100163.97;5093228;28;20036;-65
2022/12/14 10:39:01;;;;;;;17.53;14.00;;;;;;;2.03;59.40;100146.03;5092908;28;20020;-65
2022/12/14 10:41:40;;;;;;;17.58;14.15;;;;;;;2.49;57.57;100148.56;5074949;28;20020;-66
2022/12/14 10:44:33;;;;;;;18.13;14.07;;;;;;;3.07;56.98;100151.38;5092565;28;20074;-65
2022/12/14 10:47:03;;;;;;;19.10;12.40;;;;;;;2.90;54.75;100148.63;5072794;28;20078;-66
2022/12/14 10:49:40;;;;;;;18.60;13.55;;;;;;;2.90;53.09;100148.63;5075065;28;20012;-66
2022/12/14 10:52:16;;;;;;;17.10;12.13;;;;;;;2.97;53.75;100152.69;5092713;28;20037;-66
2022/12/14 10:55:05;;;;;;;17.52;12.25;;;;;;;3.02;53.45;100157.75;5092733;28;20020;-66
2022/12/14 10:57:31;;;;;;;15.63;12.77;;;;;;;2.99;53.16;100158.72;5073648;28;20024;-66
2022/12/14 10:59:56;;;;;;;17.58;12.38;;;;;;;2.82;53.20;100161.22;5074362;28;20112;-66
2022/12/14 11:02:24;;;;;;;18.23;12.77;;;;;;;2.76;54.00;100151.81;5054386;28;20036;-66
2022/12/14 11:04:56;;;;;;;15.48;12.25;;;;;;;2.72;54.45;100158.13;5072438;28;20463;-66
2022/12/14 11:07:25;;;;;;;16.45;13.55;;;;;;;2.36;53.62;100156.09;5072388;28;20075;-66
2022/12/14 11:10:24;;;;;;;17.13;13.23;;;;;;;2.45;55.93;100153.09;5068873;28;20919;-66
2022/12/14 11:13:05;;;;;;;16.67;13.32;;;;;;;1.98;55.48;100163.72;5065934;28;20491;-66
2022/12/14 11:15:37;;;;;;;18.92;12.77;;;;;;;1.79;56.40;100163.59;5067358;28;20035;-66
2022/12/14 11:18:04;;;;;;;18.95;13.10;;;;;;;1.62;55.87;100165.97;5068520;28;20021;-66
2022/12/14 11:20:31;;;;;;;19.27;13.45;;;;;;;1.62;56.32;100162.47;5068860;28;20024;-66
2022/12/14 11:23:05;;;;;;;18.42;13.57;;;;;;;1.59;56.92;100158.25;5068314;28;20032;-66
2022/12/14 11:25:38;;;;;;;19.05;13.43;;;;;;;1.80;56.03;100162.66;5068323;28;20026;-66
2022/12/14 11:28:28;;;;;;;17.98;13.77;;;;;;;2.01;56.07;100168.00;5068007;28;20021;-66
2022/12/14 11:31:19;;;;;;;17.20;13.57;;;;;;;2.03;56.94;100163.56;5068468;28;20055;-66
2022/12/14 11:33:46;;;;;;;16.73;13.60;;;;;;;2.03;55.13;100161.78;5067057;28;20120;-66
2022/12/14 11:36:41;;;;;;;15.50;13.82;;;;;;;2.33;55.98;100156.22;5050714;28;20480;-66
2022/12/14 11:39:12;;;;;;;17.10;13.50;;;;;;;2.39;54.80;100160.38;5063423;28;20786;-66
2022/12/14 11:41:47;;;;;;;18.92;13.95;;;;;;;2.48;54.58;100160.84;5068366;28;20044;-65
2022/12/14 11:44:15;;;;;;;18.63;13.43;;;;;;;2.34;54.28;100157.94;5066017;28;20383;-66